Terminal Aerodrome Forecast
Issued by NWS

Home | Current Version | Previous Version | Graphics & Text | Print | Product List | Glossary On
Versions: 1 2 3 4 5 6 7 8 9 10 11 12 13 14 15 16 17
000
FTUS43 KIWX 300535
TAFSBN
TAF
KSBN 300535Z 3006/0106 VRB03KT 6SM BR BKN020
      TEMPO 3006/3010 3SM BR BKN010
     FM301100 22006KT P6SM VCSH BKN025
     FM301900 31010KT P6SM SCT020 BKN040
     FM010100 32005KT P6SM BKN250=

USA.gov is the U.S. government's official web portal to all federal, state and local government web resources and services.